Goldberry, Missouri
Current Conditions -  °F | °C
As of 7:55 PM on Saturday 25 Oct 2014 (Local Time) from KIRK Reporting Station
Clear Clear  
Wind Chill: 58°   Ceiling: Unl
Heat Index: 58°   Visibility: 10mi
Dew Point: 47°   Wind: 8mph
Humidity: 67%   Direction: 20°NNE
Pressure: 30.05"   Gusts: NA
Location:  39.9344°N, 92.7744°W
Report Text: KIRK 260055Z AUTO 02007KT 10SM CLR 14/08 A3005 RMK AO2 SLP182 T01440083
Loading
Personal Weather Stations






























Interactive Weather Map
Tropical Storm Tracking
New forecast layout! Learn more

10-Day Weather Forecast

Advertisements
Track Severe Weather on mobile